Time;durP1;ratioP1;P1;durP2;ratioP2;P2;SDS_P1;SDS_P2;PMS_P1;PMS_P2;Temp;Humidity;BMP_temperature;BMP_pressure;BME280_temperature;BME280_humidity;BME280_pressure;Samples;Min_cycle;Max_cycle;Signal;HPM_P1;HPM_P2
2021/03/28 00:02:26;;;;;;;43.80;25.30;;;13.30;72.50;;;;;;4993197;28;20029;-71
2021/03/28 00:05:17;;;;;;;40.67;22.25;;;13.40;72.10;;;;;;4993140;28;20041;-71
2021/03/28 00:07:50;;;;;;;34.75;21.17;;;13.40;72.30;;;;;;4994358;28;20030;-71
2021/03/28 00:10:42;;;;;;;33.58;18.40;;;13.40;72.30;;;;;;4994321;28;20037;-71
2021/03/28 00:13:27;;;;;;;29.55;18.02;;;13.40;72.00;;;;;;4994346;28;20060;-71
2021/03/28 00:15:56;;;;;;;29.27;17.23;;;13.50;72.40;;;;;;4994285;28;20126;-72
2021/03/28 00:18:25;;;;;;;28.13;16.60;;;13.40;72.50;;;;;;4993892;28;20383;-72
2021/03/28 00:21:22;;;;;;;28.75;15.60;;;13.40;73.30;;;;;;4994443;28;20029;-71
2021/03/28 00:23:52;;;;;;;19.75;13.80;;;13.40;73.70;;;;;;4994187;28;20030;-73
2021/03/28 00:26:41;;;;;;;26.27;13.98;;;13.40;74.10;;;;;;4993778;28;20125;-73
2021/03/28 00:29:13;;;;;;;20.65;12.90;;;13.40;75.00;;;;;;4994108;28;20030;-72
2021/03/28 00:32:05;;;;;;;23.50;12.43;;;13.40;75.30;;;;;;4994348;28;20030;-72
2021/03/28 00:34:35;;;;;;;;;;;13.40;75.50;;;;;;4994081;28;20387;-71
2021/03/28 00:37:07;;;;;;;15.38;10.90;;;13.40;75.80;;;;;;4993912;28;19906;-72
2021/03/28 00:39:36;;;;;;;20.25;11.40;;;13.30;75.70;;;;;;4992307;28;20089;-72
2021/03/28 00:42:20;;;;;;;27.63;11.75;;;13.30;77.00;;;;;;4992477;28;20499;-71
2021/03/28 00:44:58;;;;;;;14.35;10.45;;;13.30;78.80;;;;;;4993565;28;20427;-72
2021/03/28 00:47:28;;;;;;;19.02;11.23;;;13.30;80.00;;;;;;4993521;28;20037;-71
2021/03/28 00:50:20;;;;;;;13.52;10.35;;;13.30;79.20;;;;;;4992452;28;20475;-72
2021/03/28 00:52:57;;;;;;;;;;;13.30;78.60;;;;;;5004333;28;20038;-71
2021/03/28 00:55:39;;;;;;;22.10;11.68;;;13.30;78.20;;;;;;4993379;28;19921;-70
2021/03/28 00:58:05;;;;;;;30.27;13.13;;;13.30;78.90;;;;;;4993425;28;20459;-70
2021/03/28 01:00:49;;;;;;;27.13;11.27;;;13.20;79.40;;;;;;4993301;28;20110;-69
2021/03/28 01:04:06;;;;;;;21.35;10.95;;;13.20;79.70;;;;;;4976195;28;20042;-69
2021/03/28 01:06:47;;;;;;;14.07;9.65;;;13.20;79.00;;;;;;4991806;28;20042;-70
2021/03/28 01:09:31;;;;;;;18.40;9.75;;;13.20;78.90;;;;;;4976071;28;20038;-72
2021/03/28 01:12:15;;;;;;;14.88;8.63;;;13.20;78.50;;;;;;4975741;28;20039;-70
2021/03/28 01:14:50;;;;;;;11.60;8.32;;;13.20;77.20;;;;;;4976021;28;20031;-69
2021/03/28 01:17:21;;;;;;;12.63;8.27;;;13.10;77.90;;;;;;4976029;28;20459;-70
2021/03/28 01:19:59;;;;;;;14.77;8.35;;;13.10;78.20;;;;;;4993809;28;20041;-71
2021/03/28 01:22:40;;;;;;;9.02;6.13;;;13.10;76.90;;;;;;4993232;28;20504;-70
2021/03/28 01:25:18;;;;;;;7.32;6.00;;;13.00;76.10;;;;;;4993525;28;20026;-68
2021/03/28 01:28:01;;;;;;;10.13;6.15;;;13.00;75.60;;;;;;4975917;28;20047;-69
2021/03/28 01:30:40;;;;;;;6.53;5.05;;;13.00;74.80;;;;;;4993422;28;20467;-68
2021/03/28 01:33:15;;;;;;;14.50;4.68;;;13.00;72.60;;;;;;4975908;28;20026;-70
2021/03/28 01:36:20;;;;;;;6.55;3.22;;;13.00;72.60;;;;;;4976196;28;20410;-68
2021/03/28 01:39:12;;;;;;;7.15;3.63;;;13.00;68.40;;;;;;4964156;28;20038;-68
2021/03/28 01:41:59;;;;;;;3.97;3.08;;;13.10;68.60;;;;;;4993307;28;20097;-68
2021/03/28 01:44:47;;;;;;;7.07;2.47;;;13.00;66.80;;;;;;4993047;28;20034;-70
2021/03/28 01:47:39;;;;;;;4.25;2.22;;;12.90;67.20;;;;;;4975810;28;20045;-71
2021/03/28 01:50:16;;;;;;;3.63;2.38;;;12.90;66.80;;;;;;4993442;28;20034;-70
2021/03/28 01:53:08;;;;;;;4.65;2.47;;;13.00;66.80;;;;;;4993269;28;20049;-67
2021/03/28 01:55:57;;;;;;;3.53;2.35;;;13.00;67.20;;;;;;4992933;28;20046;-69
2021/03/28 01:58:45;;;;;;;3.03;2.25;;;12.90;65.30;;;;;;4993430;28;20088;-70
2021/03/28 02:01:21;;;;;;;2.17;1.95;;;12.90;64.80;;;;;;4975629;28;20066;-71
2021/03/28 02:04:23;;;;;;;3.38;1.90;;;12.80;65.00;;;;;;4993118;28;20031;-71
2021/03/28 02:07:13;;;;;;;3.28;2.05;;;12.80;64.60;;;;;;4993209;28;20036;-69
2021/03/28 02:09:38;;;;;;;4.93;2.22;;;12.70;64.80;;;;;;4976638;28;20039;-72
2021/03/28 02:12:07;;;;;;;2.17;1.85;;;12.70;64.10;;;;;;4996487;28;20037;-72
2021/03/28 02:15:01;;;;;;;5.55;2.35;;;12.60;64.20;;;;;;4978967;28;20121;-72
2021/03/28 02:17:48;;;;;;;4.97;1.83;;;12.50;64.00;;;;;;4996452;28;20554;-72
2021/03/28 02:20:23;;;;;;;8.70;2.00;;;12.50;64.50;;;;;;4996416;28;20109;-70
2021/03/28 02:23:12;;;;;;;2.20;1.80;;;12.50;64.50;;;;;;4996337;28;20031;-70
2021/03/28 02:25:46;;;;;;;3.90;1.75;;;12.50;64.10;;;;;;4996274;28;20377;-69
2021/03/28 02:28:18;;;;;;;2.22;2.03;;;12.40;63.40;;;;;;4978854;28;20030;-71
2021/03/28 02:31:01;;;;;;;;;;;12.40;64.60;;;;;;4996946;28;20038;-68
2021/03/28 02:33:39;;;;;;;3.90;2.08;;;12.40;64.40;;;;;;4978511;28;19906;-71
2021/03/28 02:36:14;;;;;;;5.72;2.17;;;12.40;64.10;;;;;;4978644;28;20030;-70
2021/03/28 02:39:10;;;;;;;3.88;1.90;;;12.40;64.70;;;;;;4978546;28;20027;-70
2021/03/28 02:42:07;;;;;;;3.97;1.73;;;12.40;64.30;;;;;;4995965;28;20530;-70
2021/03/28 02:44:56;;;;;;;4.57;2.00;;;12.30;65.20;;;;;;4978419;28;20132;-70
2021/03/28 02:47:47;;;;;;;7.63;2.15;;;12.30;64.20;;;;;;4995783;28;20113;-70
2021/03/28 02:50:28;;;;;;;4.30;2.15;;;12.20;64.40;;;;;;4978283;28;20025;-69
2021/03/28 02:53:24;;;;;;;4.53;1.70;;;12.20;63.70;;;;;;4978423;28;20113;-70
2021/03/28 02:56:11;;;;;;;4.57;1.55;;;12.20;64.00;;;;;;4997224;28;20046;-70
2021/03/28 02:58:49;;;;;;;3.58;1.75;;;12.10;64.80;;;;;;4995396;28;20026;-71
2021/03/28 03:01:38;;;;;;;4.30;1.90;;;12.10;64.80;;;;;;4995599;28;20037;-69
2021/03/28 03:04:30;;;;;;;2.67;1.70;;;12.10;64.80;;;;;;4978132;28;20113;-70
2021/03/28 03:07:10;;;;;;;3.83;1.77;;;12.00;64.90;;;;;;4986096;28;20498;-70
2021/03/28 03:10:02;;;;;;;5.72;1.60;;;12.00;65.80;;;;;;4978041;28;20035;-71
2021/03/28 03:12:43;;;;;;;5.18;1.50;;;11.90;66.00;;;;;;4977998;28;20038;-69
2021/03/28 03:15:33;;;;;;;2.83;1.67;;;11.90;66.20;;;;;;4995178;28;20029;-69
2021/03/28 03:18:16;;;;;;;1.38;1.27;;;11.90;66.20;;;;;;4995610;28;20034;-71
2021/03/28 03:21:13;;;;;;;8.63;2.45;;;11.90;66.40;;;;;;4995182;28;20040;-71
2021/03/28 03:23:51;;;;;;;5.20;2.17;;;11.80;67.30;;;;;;4995212;28;20109;-71
2021/03/28 03:26:49;;;;;;;2.65;1.70;;;11.80;68.20;;;;;;4977653;28;20030;-70
2021/03/28 03:29:44;;;;;;;4.40;1.67;;;11.70;68.20;;;;;;4994868;28;20037;-71
2021/03/28 03:32:24;;;;;;;4.55;1.75;;;11.60;68.40;;;;;;4977609;28;20024;-74
2021/03/28 03:34:59;;;;;;;3.05;1.63;;;11.70;69.00;;;;;;4995323;28;20030;-71
2021/03/28 03:37:45;;;;;;;6.00;1.92;;;11.50;70.40;;;;;;4995007;28;20029;-71
2021/03/28 03:40:25;;;;;;;6.43;1.77;;;11.50;71.40;;;;;;4954715;28;20031;-72
2021/03/28 03:43:00;;;;;;;4.28;2.30;;;11.50;71.40;;;;;;4994849;28;20030;-71
2021/03/28 03:45:47;;;;;;;4.32;2.10;;;11.50;71.60;;;;;;4994713;28;20018;-71
2021/03/28 03:48:24;;;;;;;2.35;1.60;;;11.40;70.90;;;;;;4994808;28;20034;-72
2021/03/28 03:51:19;;;;;;;4.30;1.70;;;11.30;71.30;;;;;;4994678;28;20061;-70
2021/03/28 03:54:23;;;;;;;3.70;1.90;;;11.30;70.70;;;;;;4994917;28;20408;-70
2021/03/28 03:57:15;;;;;;;5.43;1.90;;;11.30;70.20;;;;;;4994546;28;20049;-71
2021/03/28 04:00:02;;;;;;;6.22;1.70;;;11.30;69.60;;;;;;4994856;28;20378;-69
2021/03/28 04:02:50;;;;;;;4.45;1.88;;;11.30;70.20;;;;;;4993188;28;20489;-70
2021/03/28 04:05:37;;;;;;;3.00;1.73;;;11.30;68.60;;;;;;4994452;28;20026;-71
2021/03/28 04:08:23;;;;;;;4.28;2.15;;;11.30;68.00;;;;;;4993133;28;20038;-70
2021/03/28 04:10:57;;;;;;;9.50;3.00;;;11.40;67.60;;;;;;4993103;28;20030;-71
2021/03/28 04:13:32;;;;;;;4.50;2.90;;;11.30;67.10;;;;;;4993351;28;20049;-70
2021/03/28 04:16:11;;;;;;;8.13;3.30;;;11.30;67.10;;;;;;4994350;28;20105;-70
2021/03/28 04:19:25;;;;;;;2.75;2.25;;;11.30;66.70;;;;;;4992989;28;20037;-71
2021/03/28 04:22:20;;;;;;;4.75;2.85;;;11.30;66.70;;;;;;4976895;28;20424;-73
2021/03/28 04:25:27;;;;;;;4.75;1.90;;;11.30;66.10;;;;;;4994168;28;20030;-73
2021/03/28 04:28:02;;;;;;;3.83;2.15;;;11.30;65.10;;;;;;4992809;28;20038;-72
2021/03/28 04:30:55;;;;;;;3.38;2.28;;;11.30;64.90;;;;;;4992763;28;20050;-72
2021/03/28 04:33:46;;;;;;;3.38;1.98;;;11.30;64.40;;;;;;4992300;28;20481;-72
2021/03/28 04:36:35;;;;;;;5.50;1.80;;;11.30;63.80;;;;;;4994030;28;20054;-72
2021/03/28 04:39:23;;;;;;;4.00;1.95;;;11.30;64.60;;;;;;4963905;28;20076;-72
2021/03/28 04:42:10;;;;;;;3.85;2.55;;;11.40;64.10;;;;;;4993931;28;20105;-72
2021/03/28 04:48:33;;;;;;;5.18;2.40;;;11.40;63.50;;;;;;4993911;28;20041;-71
2021/03/28 04:51:30;;;;;;;5.93;2.47;;;11.40;63.90;;;;;;4993931;28;20026;-70
2021/03/28 04:54:10;;;;;;;4.00;1.42;;;11.30;63.90;;;;;;4992859;28;20475;-70
2021/03/28 04:57:10;;;;;;;5.15;2.30;;;11.30;62.00;;;;;;4993839;28;20129;-68
2021/03/28 04:59:42;;;;;;;8.50;2.85;;;11.30;63.60;;;;;;5013314;28;20026;-70
2021/03/28 05:02:17;;;;;;;4.15;2.22;;;11.20;64.00;;;;;;4995720;28;20116;-71
2021/03/28 05:05:10;;;;;;;6.22;2.35;;;11.30;65.50;;;;;;4995539;28;20057;-67
2021/03/28 05:08:24;;;;;;;8.90;2.22;;;11.30;67.00;;;;;;5013149;28;20493;-69
2021/03/28 05:11:21;;;;;;;8.27;3.88;;;11.20;67.00;;;;;;5012924;28;20117;-72
2021/03/28 05:14:05;;;;;;;10.13;5.00;;;11.20;67.00;;;;;;4995678;28;20359;-75
2021/03/28 05:17:04;;;;;;;13.20;6.00;;;11.10;67.20;;;;;;4995495;28;20463;-70
2021/03/28 05:19:39;;;;;;;16.92;6.60;;;11.10;67.60;;;;;;5013178;28;20030;-73
2021/03/28 05:22:33;;;;;;;20.17;7.45;;;11.10;68.40;;;;;;5012875;28;20033;-71
2021/03/28 05:25:25;;;;;;;19.73;7.50;;;11.00;68.80;;;;;;4995378;28;20030;-73
2021/03/28 05:28:19;;;;;;;13.05;7.32;;;11.00;67.60;;;;;;4995413;28;20030;-69
2021/03/28 05:31:22;;;;;;;13.90;6.50;;;11.00;68.60;;;;;;5013226;28;20105;-70
2021/03/28 05:34:21;;;;;;;8.75;4.28;;;10.90;70.50;;;;;;4995272;28;20041;-72
2021/03/28 05:36:56;;;;;;;9.70;4.93;;;10.90;70.60;;;;;;5013004;28;20061;-69
2021/03/28 05:39:45;;;;;;;8.30;4.63;;;10.90;70.50;;;;;;4995264;28;20030;-71
2021/03/28 05:42:14;;;;;;;7.90;4.15;;;10.90;71.10;;;;;;5012937;28;20053;-71
2021/03/28 05:45:01;;;;;;;8.93;4.32;;;10.90;71.40;;;;;;5013990;28;20092;-71
2021/03/28 05:48:14;;;;;;;10.50;4.45;;;10.80;72.80;;;;;;5016531;28;20042;-72
2021/03/28 05:51:01;;;;;;;5.43;3.05;;;10.80;73.30;;;;;;4995138;28;20514;-71
2021/03/28 05:54:00;;;;;;;5.93;3.85;;;10.80;74.80;;;;;;5016763;28;20022;-71
2021/03/28 05:56:45;;;;;;;7.78;5.35;;;10.70;75.10;;;;;;5016494;28;20049;-73
2021/03/28 05:59:16;;;;;;;10.07;4.20;;;10.70;74.40;;;;;;5016682;28;20030;-73
2021/03/28 06:01:48;;;;;;;4.18;2.55;;;10.70;74.80;;;;;;5014999;28;20030;-71
2021/03/28 06:04:52;;;;;;;6.32;2.30;;;10.70;74.10;;;;;;5016318;28;20065;-72
2021/03/28 06:07:45;;;;;;;5.80;2.45;;;10.70;74.10;;;;;;5016219;28;20121;-72
2021/03/28 06:10:40;;;;;;;4.75;2.28;;;10.80;74.40;;;;;;5014919;28;20034;-72
2021/03/28 06:13:35;;;;;;;3.92;2.33;;;10.80;76.30;;;;;;5004719;28;20029;-70
2021/03/28 06:16:07;;;;;;;6.13;3.03;;;10.80;75.80;;;;;;5014930;28;20040;-72
2021/03/28 06:18:41;;;;;;;5.22;3.05;;;10.80;75.20;;;;;;5014818;28;20029;-72
2021/03/28 06:21:40;;;;;;;9.80;3.55;;;10.90;75.00;;;;;;5014684;28;20038;-71
2021/03/28 06:24:21;;;;;;;6.32;3.53;;;10.90;75.50;;;;;;5016291;28;20030;-73
2021/03/28 06:27:10;;;;;;;13.48;4.43;;;11.00;76.30;;;;;;5014544;28;20141;-72
2021/03/28 06:30:16;;;;;;;8.63;3.90;;;11.00;76.80;;;;;;5015906;28;20026;-71
2021/03/28 06:33:19;;;;;;;8.82;4.60;;;11.10;78.30;;;;;;5015761;28;20022;-72
2021/03/28 06:36:23;;;;;;;8.52;2.90;;;11.20;78.30;;;;;;5015971;28;20085;-72
2021/03/28 06:39:27;;;;;;;5.93;3.00;;;11.20;78.10;;;;;;5014740;28;20037;-72
2021/03/28 06:42:01;;;;;;;10.30;2.85;;;11.30;76.70;;;;;;5014249;28;20030;-72
2021/03/28 06:44:39;;;;;;;7.03;2.42;;;11.30;75.60;;;;;;5015567;28;20034;-70
2021/03/28 06:47:30;;;;;;;3.80;2.10;;;11.30;74.50;;;;;;5015457;28;20034;-70
2021/03/28 06:50:11;;;;;;;10.82;4.50;;;11.40;75.00;;;;;;5015783;28;20029;-71
2021/03/28 06:53:14;;;;;;;10.20;4.85;;;11.50;73.60;;;;;;5014151;28;20030;-73
2021/03/28 06:55:40;;;;;;;9.55;5.47;;;11.60;71.80;;;;;;5014893;28;20050;-71
2021/03/28 06:59:03;;;;;;;10.25;5.93;;;11.70;73.10;;;;;;4997451;28;20485;-72
2021/03/28 07:01:49;;;;;;;;;;;11.70;71.00;;;;;;4916799;29;20035;-70
2021/03/28 07:04:39;;;;;;;12.20;4.95;;;11.90;70.40;;;;;;4916367;29;19915;-72
2021/03/28 07:07:37;;;;;;;14.73;7.32;;;11.90;69.20;;;;;;4900364;29;20044;-73
2021/03/28 07:10:03;;;;;;;9.45;5.72;;;11.90;69.40;;;;;;4916265;29;20040;-70
2021/03/28 07:12:41;;;;;;;7.70;3.30;;;12.00;67.00;;;;;;4900263;29;20520;-72
2021/03/28 07:15:18;;;;;;;5.70;2.85;;;12.20;67.00;;;;;;4900313;29;20093;-73
2021/03/28 07:18:16;;;;;;;14.00;7.65;;;12.20;65.60;;;;;;4916161;29;20036;-73
2021/03/28 07:21:08;;;;;;;3.40;3.00;;;12.40;67.20;;;;;;4900202;29;20028;-72
2021/03/28 07:23:36;;;;;;;2.53;1.90;;;12.30;68.10;;;;;;4916030;29;20068;-70
2021/03/28 07:26:08;;;;;;;3.65;2.35;;;12.20;65.70;;;;;;4915938;29;20052;-69
2021/03/28 07:28:52;;;;;;;3.72;2.50;;;12.20;64.70;;;;;;4915958;29;20040;-70
2021/03/28 07:31:27;;;;;;;5.88;2.60;;;12.20;66.90;;;;;;4938735;28;20038;-73
2021/03/28 07:34:27;;;;;;;4.88;2.25;;;12.20;68.40;;;;;;5009349;28;20117;-69
2021/03/28 07:37:29;;;;;;;6.57;2.55;;;12.20;66.00;;;;;;4997849;28;20066;-73
2021/03/28 07:40:22;;;;;;;5.60;2.45;;;12.20;67.20;;;;;;4985062;28;20387;-72
2021/03/28 07:43:09;;;;;;;5.57;2.95;;;12.20;66.60;;;;;;4997279;28;20022;-73
2021/03/28 07:45:54;;;;;;;6.20;2.92;;;12.10;66.30;;;;;;4994748;28;20033;-73
2021/03/28 07:48:50;;;;;;;5.15;2.88;;;12.20;67.70;;;;;;4977307;28;20105;-72
2021/03/28 07:51:37;;;;;;;5.78;3.15;;;12.30;66.90;;;;;;4994976;28;20113;-72
2021/03/28 07:54:44;;;;;;;3.75;2.63;;;12.30;67.20;;;;;;4976999;28;20031;-72
2021/03/28 07:57:34;;;;;;;6.82;3.00;;;12.30;68.20;;;;;;4972559;28;20450;-71
2021/03/28 08:00:00;;;;;;;5.85;4.10;;;12.20;68.10;;;;;;4977024;28;20483;-71
2021/03/28 08:03:05;;;;;;;6.30;3.60;;;12.30;68.00;;;;;;4977103;28;20077;-72
2021/03/28 08:06:05;;;;;;;10.80;4.68;;;12.30;69.70;;;;;;4976964;28;20374;-71
2021/03/28 08:08:42;;;;;;;8.82;4.35;;;12.30;68.30;;;;;;4993721;28;20107;-72
2021/03/28 08:11:37;;;;;;;6.78;3.90;;;12.30;69.30;;;;;;4994015;28;20467;-72
2021/03/28 08:17:55;;;;;;;8.68;5.70;;;12.40;68.20;;;;;;4990235;28;20033;-70
2021/03/28 08:20:39;;;;;;;13.20;6.47;;;12.40;70.70;;;;;;4993060;28;20061;-71
2021/03/28 08:23:22;;;;;;;13.13;7.82;;;12.40;69.00;;;;;;4993816;28;20395;-70
2021/03/28 08:26:09;;;;;;;10.85;6.63;;;12.40;70.30;;;;;;4976395;28;20026;-73
2021/03/28 08:29:07;;;;;;;16.88;7.88;;;12.50;69.60;;;;;;4976493;28;20533;-71
2021/03/28 08:31:57;;;;;;;19.25;8.35;;;12.60;68.20;;;;;;4939645;28;20517;-70
2021/03/28 08:35:00;;;;;;;44.03;20.45;;;12.70;69.00;;;;;;4994037;28;20030;-70
2021/03/28 08:37:56;;;;;;;27.25;11.60;;;12.70;67.60;;;;;;4993914;28;20129;-69
2021/03/28 08:41:02;;;;;;;16.15;8.93;;;12.70;67.10;;;;;;4993913;28;20105;-69
2021/03/28 08:43:48;;;;;;;13.27;7.72;;;12.60;67.60;;;;;;4959707;28;20042;-70
2021/03/28 08:46:40;;;;;;;10.85;5.55;;;12.60;66.00;;;;;;5013176;28;20048;-69
2021/03/28 08:49:24;;;;;;;;;;;12.60;63.80;;;;;;5014074;28;20029;-69
2021/03/28 08:52:15;;;;;;;8.65;4.85;;;12.60;65.20;;;;;;4995707;28;19944;-70
2021/03/28 08:54:58;;;;;;;8.75;5.22;;;12.70;66.00;;;;;;5013196;28;20053;-68
2021/03/28 08:58:03;;;;;;;11.18;6.88;;;12.70;65.50;;;;;;5013601;28;20038;-72
2021/03/28 09:01:06;;;;;;;9.10;5.15;;;12.80;64.90;;;;;;4914398;29;20402;-69
2021/03/28 09:03:52;;;;;;;12.98;7.00;;;12.80;65.50;;;;;;4898654;29;20075;-70
2021/03/28 09:06:32;;;;;;;9.07;5.82;;;12.80;65.70;;;;;;4914196;29;20041;-70
2021/03/28 09:09:34;;;;;;;10.60;5.35;;;12.90;65.70;;;;;;4914368;29;20045;-72
2021/03/28 09:12:29;;;;;;;9.80;5.45;;;12.90;65.40;;;;;;4905846;29;20036;-69
2021/03/28 09:14:57;;;;;;;14.10;5.55;;;12.90;65.10;;;;;;4914327;29;20032;-70
2021/03/28 09:17:51;;;;;;;6.75;5.57;;;12.90;65.20;;;;;;4914350;29;20044;-69
2021/03/28 09:20:47;;;;;;;11.02;6.35;;;13.00;65.40;;;;;;4902279;29;20043;-71
2021/03/28 09:23:36;;;;;;;15.88;6.40;;;13.10;66.70;;;;;;4902347;29;20562;-71
2021/03/28 09:26:12;;;;;;;12.90;5.93;;;13.10;64.00;;;;;;4902172;29;20056;-69
2021/03/28 09:28:56;;;;;;;6.38;4.55;;;13.20;62.90;;;;;;4902056;29;20123;-71
2021/03/28 09:31:46;;;;;;;7.93;5.28;;;13.20;61.60;;;;;;4899180;29;20040;-70
2021/03/28 09:34:48;;;;;;;7.70;5.00;;;13.20;62.90;;;;;;4922357;28;20372;-69
2021/03/28 09:37:56;;;;;;;9.73;3.97;;;13.30;61.10;;;;;;4997531;28;20030;-70
2021/03/28 09:40:47;;;;;;;10.68;4.85;;;13.20;57.80;;;;;;4987476;28;21353;-70
2021/03/28 09:43:21;;;;;;;6.00;3.70;;;13.10;58.60;;;;;;5007012;28;20027;-71
2021/03/28 09:46:25;;;;;;;7.25;4.53;;;13.10;59.60;;;;;;5006075;28;20374;-71
2021/03/28 09:49:15;;;;;;;8.70;4.50;;;13.10;60.70;;;;;;4918671;29;20099;-70
2021/03/28 09:52:12;;;;;;;7.95;4.22;;;13.10;60.60;;;;;;4928188;29;20071;-71
2021/03/28 09:54:59;;;;;;;9.00;5.53;;;13.40;59.70;;;;;;4925938;29;20047;-71
2021/03/28 09:57:43;;;;;;;9.55;5.70;;;13.70;59.40;;;;;;4956036;29;20043;-70
2021/03/28 10:00:36;;;;;;;17.27;8.20;;;13.80;59.10;;;;;;4955527;29;20403;-73
2021/03/28 10:03:11;;;;;;;9.02;4.75;;;14.00;55.30;;;;;;4954888;28;20361;-69
2021/03/28 10:05:38;;;;;;;5.78;4.40;;;14.00;54.80;;;;;;4939260;29;20416;-72
2021/03/28 10:08:12;;;;;;;19.10;9.50;;;14.20;54.20;;;;;;4939321;29;20031;-72
2021/03/28 10:11:01;;;;;;;8.30;4.60;;;14.30;55.90;;;;;;4954814;29;20039;-72
2021/03/28 10:13:41;;;;;;;10.20;5.53;;;14.30;53.50;;;;;;4909464;29;20116;-72
2021/03/28 10:16:14;;;;;;;8.35;4.75;;;14.30;55.00;;;;;;4919406;29;20058;-70
2021/03/28 10:19:08;;;;;;;8.98;5.25;;;14.50;52.50;;;;;;4935101;29;20043;-69
2021/03/28 10:22:06;;;;;;;6.55;3.63;;;14.70;53.60;;;;;;4943934;28;20122;-73
2021/03/28 10:25:27;;;;;;;5.35;3.22;;;14.90;51.10;;;;;;4989194;28;20037;-72
2021/03/28 10:27:56;;;;;;;6.63;3.80;;;15.40;51.00;;;;;;5009160;28;20041;-72
2021/03/28 10:30:44;;;;;;;7.65;2.75;;;15.20;51.50;;;;;;5034040;28;20053;-74
2021/03/28 10:33:28;;;;;;;6.38;3.97;;;15.50;49.90;;;;;;5035479;28;20029;-72
2021/03/28 10:36:09;;;;;;;7.95;4.32;;;15.70;51.10;;;;;;5034206;28;20040;-70
2021/03/28 10:39:02;;;;;;;5.20;2.55;;;16.20;49.50;;;;;;5034024;28;20417;-71
2021/03/28 10:41:56;;;;;;;7.30;3.85;;;16.60;48.70;;;;;;5033669;28;20025;-72
2021/03/28 10:44:31;;;;;;;5.70;3.50;;;18.50;44.80;;;;;;5034008;28;20356;-73
2021/03/28 10:47:12;;;;;;;3.17;2.50;;;19.80;41.60;;;;;;5033445;28;20080;-74
2021/03/28 10:50:05;;;;;;;4.07;2.90;;;19.10;42.10;;;;;;5028973;28;20071;-72
2021/03/28 10:52:50;;;;;;;4.63;2.00;;;18.30;41.90;;;;;;5034534;28;20029;-74
2021/03/28 10:55:37;;;;;;;5.57;2.10;;;17.70;40.50;;;;;;5025341;28;20061;-71
2021/03/28 10:58:30;;;;;;;2.97;2.05;;;17.60;42.20;;;;;;5011222;28;20080;-73
2021/03/28 11:01:29;;;;;;;5.55;2.10;;;17.50;42.90;;;;;;4996064;28;20125;-72
2021/03/28 11:04:22;;;;;;;7.68;3.40;;;17.70;45.10;;;;;;5014648;28;20092;-73
2021/03/28 11:07:00;;;;;;;7.15;3.40;;;17.80;42.70;;;;;;4987618;28;20045;-72
2021/03/28 11:09:48;;;;;;;4.47;2.70;;;18.20;44.60;;;;;;4978307;28;20026;-71
2021/03/28 11:12:21;;;;;;;6.43;2.58;;;18.70;43.60;;;;;;4996675;28;20026;-72
2021/03/28 11:15:03;;;;;;;3.03;2.33;;;19.40;40.50;;;;;;4996455;28;20038;-72
2021/03/28 11:18:09;;;;;;;5.15;2.85;;;19.50;39.70;;;;;;4995720;28;20053;-71
2021/03/28 11:20:59;;;;;;;4.78;1.90;;;19.90;38.20;;;;;;4994775;28;20383;-71
2021/03/28 11:24:07;;;;;;;2.75;2.00;;;20.00;37.00;;;;;;5008830;28;20030;-70
2021/03/28 11:26:58;;;;;;;4.47;2.30;;;19.90;35.80;;;;;;4996995;28;20046;-70
2021/03/28 11:29:52;;;;;;;5.70;2.33;;;19.90;35.20;;;;;;5014890;28;20505;-72
2021/03/28 11:32:43;;;;;;;4.78;2.25;;;20.50;33.20;;;;;;4988496;28;20052;-71
2021/03/28 11:35:17;;;;;;;3.53;1.33;;;20.40;33.50;;;;;;5006687;28;20049;-71
2021/03/28 11:38:15;;;;;;;2.35;1.45;;;21.00;32.40;;;;;;5008584;28;20033;-71
2021/03/28 11:40:41;;;;;;;3.08;1.15;;;21.10;32.00;;;;;;4996935;28;20049;-71
2021/03/28 11:43:13;;;;;;;1.98;0.98;;;21.00;30.60;;;;;;5009629;28;20081;-72
2021/03/28 11:46:03;;;;;;;2.00;1.80;;;20.50;30.60;;;;;;4994398;28;20029;-72
2021/03/28 11:48:34;;;;;;;4.88;2.08;;;19.90;31.20;;;;;;4994530;28;20045;-72
2021/03/28 11:51:29;;;;;;;4.97;2.72;;;19.30;33.30;;;;;;4976648;28;20161;-71
2021/03/28 11:54:09;;;;;;;6.20;3.28;;;19.30;35.20;;;;;;4994317;28;20030;-70
2021/03/28 11:57:02;;;;;;;5.90;2.58;;;19.40;36.20;;;;;;5018499;28;20140;-71
2021/03/28 11:59:54;;;;;;;4.05;1.90;;;19.10;35.30;;;;;;5032133;28;20022;-71
2021/03/28 12:02:28;;;;;;;5.40;1.88;;;19.20;40.50;;;;;;5033672;28;20021;-71
2021/03/28 12:04:57;;;;;;;6.55;3.83;;;19.20;35.80;;;;;;5033597;28;20099;-71
2021/03/28 12:07:43;;;;;;;11.75;5.00;;;19.10;34.80;;;;;;5033523;28;20029;-72
2021/03/28 12:10:09;;;;;;;6.78;3.95;;;18.10;35.80;;;;;;5030967;28;20021;-72
2021/03/28 12:12:48;;;;;;;5.80;3.25;;;17.90;35.70;;;;;;5028516;28;20036;-72
2021/03/28 12:15:44;;;;;;;6.40;4.05;;;17.80;40.10;;;;;;5017887;28;20092;-72
2021/03/28 12:18:28;;;;;;;4.50;2.05;;;17.70;40.40;;;;;;5013452;28;20475;-71
2021/03/28 12:21:03;;;;;;;5.72;2.95;;;17.70;42.00;;;;;;5013815;28;20037;-71
2021/03/28 12:23:41;;;;;;;5.95;2.53;;;17.50;42.40;;;;;;5012405;28;20057;-73
2021/03/28 12:26:15;;;;;;;9.30;3.42;;;17.40;41.80;;;;;;5011377;28;20037;-73
2021/03/28 12:28:49;;;;;;;11.00;5.00;;;17.30;38.30;;;;;;5011426;28;20026;-72
2021/03/28 12:31:47;;;;;;;15.05;7.47;;;17.30;37.60;;;;;;5013747;28;20029;-73
2021/03/28 12:34:32;;;;;;;16.05;8.73;;;17.20;38.50;;;;;;5013849;28;20455;-71
2021/03/28 12:37:12;;;;;;;22.10;11.48;;;17.20;38.80;;;;;;5013938;28;20029;-71
2021/03/28 12:39:58;;;;;;;12.20;5.97;;;17.10;38.00;;;;;;5012343;28;20117;-73
2021/03/28 12:42:34;;;;;;;4.50;2.20;;;16.90;39.40;;;;;;5012597;28;20058;-71
2021/03/28 12:45:09;;;;;;;33.97;17.10;;;16.80;43.50;;;;;;5013172;28;20025;-72
2021/03/28 12:47:55;;;;;;;7.22;3.95;;;16.40;40.00;;;;;;5012021;28;20589;-73
2021/03/28 12:50:26;;;;;;;38.70;16.15;;;16.20;40.40;;;;;;5019290;28;20037;-71
2021/03/28 12:53:01;;;;;;;43.63;21.08;;;16.10;41.60;;;;;;5030272;28;20382;-71
2021/03/28 12:55:30;;;;;;;16.95;9.60;;;15.80;41.40;;;;;;5022642;28;20053;-72
2021/03/28 12:58:11;;;;;;;17.15;8.63;;;15.80;41.60;;;;;;5013167;28;20096;-72
2021/03/28 13:00:49;;;;;;;8.82;6.13;;;15.70;40.30;;;;;;4995437;28;20026;-72
2021/03/28 13:03:21;;;;;;;4.90;2.70;;;15.70;39.60;;;;;;5013129;28;20040;-73
2021/03/28 13:06:16;;;;;;;8.88;4.90;;;15.50;38.80;;;;;;4995248;28;20030;-70
2021/03/28 13:08:48;;;;;;;12.60;5.65;;;15.50;39.20;;;;;;5003713;28;20046;-69
2021/03/28 13:11:15;;;;;;;6.00;3.63;;;15.50;40.10;;;;;;4995426;28;20053;-69
2021/03/28 13:13:49;;;;;;;10.75;5.68;;;15.60;39.70;;;;;;5013004;28;20037;-69
2021/03/28 13:16:27;;;;;;;15.73;7.50;;;15.60;38.50;;;;;;5013266;28;20033;-71
2021/03/28 13:18:55;;;;;;;21.85;11.02;;;15.60;39.70;;;;;;4995142;28;20038;-69
2021/03/28 13:21:31;;;;;;;14.07;6.40;;;15.50;38.30;;;;;;5012896;28;20030;-70
2021/03/28 13:24:19;;;;;;;14.05;7.72;;;15.50;37.70;;;;;;5012915;28;20072;-70
2021/03/28 13:27:11;;;;;;;6.03;3.03;;;15.50;38.60;;;;;;5012722;28;20454;-70
2021/03/28 13:29:50;;;;;;;23.30;15.63;;;15.30;38.30;;;;;;5012704;28;20030;-72
2021/03/28 13:32:21;;;;;;;34.75;19.52;;;15.30;38.80;;;;;;5013195;28;20080;-68
2021/03/28 13:34:47;;;;;;;10.47;7.93;;;15.30;39.30;;;;;;5012892;28;20022;-70
2021/03/28 13:37:35;;;;;;;10.88;7.80;;;15.20;39.50;;;;;;5012776;28;20794;-70
2021/03/28 13:40:19;;;;;;;6.57;4.13;;;15.20;39.90;;;;;;5012838;28;20025;-70
2021/03/28 13:42:51;;;;;;;8.95;2.88;;;15.30;42.20;;;;;;5012883;28;20029;-70
2021/03/28 13:45:17;;;;;;;5.13;2.58;;;15.30;40.20;;;;;;4995103;28;20030;-71
2021/03/28 13:47:58;;;;;;;5.13;2.42;;;15.30;41.20;;;;;;4995003;28;20041;-71
2021/03/28 13:50:35;;;;;;;5.20;2.50;;;15.30;40.30;;;;;;4994935;28;20022;-73
2021/03/28 13:53:09;;;;;;;4.90;2.30;;;15.30;39.80;;;;;;5012732;28;20026;-74
2021/03/28 13:55:39;;;;;;;7.03;1.85;;;15.40;39.70;;;;;;5012560;28;20116;-71
2021/03/28 13:58:24;;;;;;;6.83;2.53;;;15.40;40.10;;;;;;4995126;28;20496;-69
2021/03/28 14:01:03;;;;;;;4.55;1.77;;;15.50;38.70;;;;;;5012484;28;20030;-69
2021/03/28 14:03:32;;;;;;;4.95;2.05;;;15.50;39.30;;;;;;5012559;28;20030;-71
2021/03/28 14:06:15;;;;;;;3.08;1.63;;;15.50;38.80;;;;;;4996457;28;20026;-70
2021/03/28 14:08:43;;;;;;;2.53;1.33;;;15.60;39.30;;;;;;5016195;28;20100;-70
2021/03/28 14:11:20;;;;;;;5.57;1.88;;;15.60;38.90;;;;;;5016024;28;20034;-71
2021/03/28 14:13:47;;;;;;;5.07;2.97;;;15.60;39.20;;;;;;5015959;28;20030;-71
2021/03/28 14:16:16;;;;;;;7.60;3.85;;;15.70;39.00;;;;;;5015991;28;20037;-72
2021/03/28 14:18:49;;;;;;;6.15;3.40;;;15.90;39.20;;;;;;5015999;28;20025;-70
2021/03/28 14:21:23;;;;;;;7.07;3.28;;;16.00;37.90;;;;;;5015914;28;20053;-71
2021/03/28 14:24:12;;;;;;;6.45;3.08;;;15.90;38.40;;;;;;5015839;28;20121;-70